| time (UTC) | temp C | wind direction | speed KPH | gust KPH | rain 1hr cm | rain 24hr cm | rain mn cm | humidity % | barometer mb |
| 20260506211929 | 18 | 220 | 3.2 | 6.4 | 0.00 | 0.51 | 0.51 | 83 | 981.8 |
| 20260506211431 | 18 | 24 | 3.2 | 8.0 | 0.00 | 0.51 | 0.51 | 82 | 981.7 |
| 20260506211214 | 18 | 31 | 4.8 | 9.7 | 0.00 | 0.51 | 0.51 | 83 | 981.7 |
| 20260506210429 | 18 | 245 | 4.8 | 9.7 | 0.00 | 0.51 | 0.51 | 82 | 981.6 |
| 20260506210219 | 18 | 286 | 4.8 | 9.7 | 0.00 | 0.51 | 0.51 | 82 | 981.6 |
| 20260506205430 | 18 | 213 | 4.8 | 9.7 | 0.00 | 0.51 | 0.51 | 82 | 981.7 |
| 20260506204928 | 18 | 291 | 3.2 | 9.7 | 0.00 | 0.51 | 0.51 | 82 | 981.6 |
| 20260506204430 | 18 | 341 | 3.2 | 6.4 | 0.00 | 0.51 | 0.51 | 84 | 981.6 |
| 20260506203930 | 18 | 332 | 3.2 | 6.4 | 0.00 | 0.51 | 0.51 | 84 | 981.6 |
| 20260506203430 | 17 | 300 | 3.2 | 9.7 | 0.00 | 0.51 | 0.51 | 84 | 981.6 |
| 20260506202929 | 17 | 190 | 3.2 | 11.3 | 0.00 | 0.51 | 0.51 | 84 | 981.6 |
| 20260506202718 | 17 | 269 | 3.2 | 11.3 | 0.00 | 0.51 | 0.51 | 84 | 981.6 |
| 20260506202217 | 17 | 0 | 3.2 | 11.3 | 0.00 | 0.51 | 0.51 | 85 | 981.6 |
| 20260506201429 | 17 | 269 | 3.2 | 8.0 | 0.00 | 0.51 | 0.51 | 85 | 981.5 |
| 20260506200931 | 17 | 196 | 3.2 | 6.4 | 0.00 | 0.51 | 0.51 | 86 | 981.6 |
| 20260506200436 | 17 | 27 | 3.2 | 12.9 | 0.00 | 0.51 | 0.51 | 86 | 981.6 |
| 20260506195933 | 17 | 288 | 3.2 | 12.9 | 0.00 | 0.51 | 0.51 | 86 | 981.5 |
| 20260506195510 | 17 | 21 | 4.8 | 12.9 | 0.00 | 0.51 | 0.51 | 86 | 981.7 |
| 20260506195456 | 17 | 252 | 4.8 | 12.9 | 0.00 | 0.51 | 0.51 | 86 | 981.6 |
| 20260506194429 | 17 | 117 | 3.2 | 12.9 | 0.00 | 0.51 | 0.51 | 87 | 981.7 |
| 20260506193930 | 17 | 278 | 3.2 | 11.3 | 0.00 | 0.51 | 0.51 | 88 | 981.7 |
| 20260506193428 | 16 | 275 | 3.2 | 11.3 | 0.00 | 0.51 | 0.51 | 88 | 981.9 |
| 20260506192930 | 16 | 304 | 4.8 | 11.3 | 0.00 | 0.51 | 0.51 | 88 | 981.9 |
| 20260506192428 | 16 | 44 | 4.8 | 11.3 | 0.00 | 0.51 | 0.51 | 88 | 982.0 |
| 20260506192212 | 16 | 171 | 4.8 | 9.7 | 0.00 | 0.51 | 0.51 | 89 | 981.9 |
| 20260506191430 | 16 | 285 | 3.2 | 6.4 | 0.00 | 0.51 | 0.51 | 89 | 981.9 |
| 20260506190942 | 16 | 178 | 3.2 | 9.7 | 0.00 | 0.51 | 0.51 | 90 | 982.0 |
| 20260506190937 | 16 | 200 | 3.2 | 6.4 | 0.00 | 0.51 | 0.51 | 90 | 981.9 |
| 20260506185929 | 16 | 210 | 3.2 | 9.7 | 0.00 | 0.51 | 0.51 | 90 | 982.0 |
| 20260506185430 | 16 | 216 | 3.2 | 6.4 | 0.00 | 0.51 | 0.51 | 91 | 982.1 |
| 20260506185208 | 16 | 220 | 3.2 | 9.7 | 0.00 | 0.51 | 0.51 | 91 | 982.1 |
| 20260506184429 | 16 | 226 | 4.8 | 11.3 | 0.00 | 0.51 | 0.51 | 91 | 982.2 |
| 20260506183928 | 15 | 167 | 4.8 | 11.3 | 0.00 | 0.51 | 0.51 | 91 | 982.2 |
| 20260506183429 | 15 | 178 | 4.8 | 9.7 | 0.00 | 0.51 | 0.51 | 92 | 982.3 |
| 20260506182929 | 15 | 186 | 3.2 | 6.4 | 0.00 | 0.51 | 0.51 | 92 | 982.3 |
| 20260506182431 | 15 | 204 | 4.8 | 9.7 | 0.00 | 0.51 | 0.51 | 92 | 982.4 |
| 20260506182213 | 15 | 122 | 4.8 | 11.3 | 0.00 | 0.51 | 0.51 | 92 | 982.5 |
| 20260506181430 | 15 | 326 | 4.8 | 11.3 | 0.00 | 0.51 | 0.51 | 92 | 982.6 |
| 20260506180930 | 15 | 202 | 3.2 | 9.7 | 0.00 | 0.51 | 0.51 | 92 | 982.7 |
| 20260506180432 | 15 | 247 | 4.8 | 12.9 | 0.00 | 0.51 | 0.51 | 92 | 982.7 |
| 20260506175931 | 15 | 260 | 4.8 | 12.9 | 0.00 | 0.51 | 0.51 | 92 | 982.8 |
| 20260506175431 | 15 | 241 | 4.8 | 12.9 | 0.00 | 0.51 | 0.51 | 92 | 982.8 |
| 20260506174931 | 15 | 138 | 4.8 | 12.9 | 0.00 | 0.51 | 0.51 | 92 | 982.8 |
| 20260506174430 | 15 | 234 | 4.8 | 9.7 | 0.00 | 0.51 | 0.51 | 92 | 982.7 |
| 20260506173930 | 15 | 171 | 4.8 | 9.7 | 0.00 | 0.51 | 0.51 | 92 | 982.7 |
| 20260506173431 | 15 | 243 | 4.8 | 9.7 | 0.00 | 0.51 | 0.51 | 91 | 982.7 |
| 20260506173220 | 15 | 207 | 4.8 | 11.3 | 0.00 | 0.51 | 0.51 | 91 | 982.7 |
| 20260506172431 | 15 | 335 | 4.8 | 11.3 | 0.00 | 0.51 | 0.51 | 91 | 982.7 |
| 20260506171931 | 15 | 223 | 4.8 | 11.3 | 0.00 | 0.51 | 0.51 | 91 | 982.6 |
| 20260506171431 | 15 | 215 | 4.8 | 14.5 | 0.00 | 0.51 | 0.51 | 92 | 982.6 |
| 20260506171340 | 15 | 194 | 6.4 | 16.1 | 0.00 | 0.51 | 0.51 | 92 | 982.6 |
| 20260506171336 | 15 | 170 | 4.8 | 12.9 | 0.03 | 0.51 | 0.51 | 92 | 982.7 |
| 20260506171331 | 15 | 190 | 6.4 | 16.1 | 0.00 | 0.51 | 0.51 | 92 | 982.6 |
| 20260506165431 | 15 | 197 | 6.4 | 12.9 | 0.03 | 0.51 | 0.51 | 92 | 982.7 |
| 20260506164930 | 15 | 273 | 4.8 | 12.9 | 0.05 | 0.51 | 0.51 | 92 | 982.7 |
| 20260506164510 | 15 | 168 | 4.8 | 12.9 | 0.05 | 0.51 | 0.51 | 92 | 982.9 |
| 20260506164458 | 15 | 17 | 4.8 | 12.9 | 0.05 | 0.51 | 0.51 | 92 | 982.8 |
| 20260506163431 | 15 | 218 | 4.8 | 11.3 | 0.10 | 0.51 | 0.51 | 92 | 982.8 |
| 20260506162931 | 15 | 144 | 6.4 | 16.1 | 0.10 | 0.51 | 0.48 | 92 | 982.7 |
| 20260506162430 | 15 | 194 | 8.0 | 16.1 | 0.10 | 0.48 | 0.48 | 92 | 982.9 |
| 20260506161930 | 15 | 207 | 8.0 | 17.7 | 0.13 | 0.48 | 0.48 | 92 | 982.8 |
| 20260506161430 | 15 | 195 | 8.0 | 17.7 | 0.15 | 0.48 | 0.48 | 92 | 982.6 |
| 20260506161226 | 15 | 89 | 6.4 | 14.5 | 0.15 | 0.48 | 0.48 | 93 | 982.6 |
| 20260506160430 | 15 | 225 | 6.4 | 12.9 | 0.18 | 0.48 | 0.48 | 93 | 982.5 |
| 20260506160216 | 15 | 272 | 4.8 | 14.5 | 0.18 | 0.48 | 0.48 | 92 | 982.6 |
| 20260506155429 | 15 | 213 | 6.4 | 14.5 | 0.23 | 0.48 | 0.48 | 92 | 982.8 |
| 20260506154931 | 15 | 177 | 6.4 | 12.9 | 0.25 | 0.46 | 0.46 | 92 | 983.2 |
| 20260506154430 | 15 | 227 | 4.8 | 12.9 | 0.28 | 0.46 | 0.46 | 92 | 983.4 |
| 20260506154220 | 15 | 215 | 4.8 | 11.3 | 0.25 | 0.43 | 0.43 | 92 | 983.5 |
| 20260506153511 | 15 | 220 | 6.4 | 12.9 | 0.23 | 0.41 | 0.38 | 92 | 983.7 |
| 20260506153457 | 15 | 306 | 6.4 | 12.9 | 0.23 | 0.41 | 0.41 | 92 | 983.6 |
| 20260506152429 | 15 | 223 | 6.4 | 11.3 | 0.23 | 0.38 | 0.38 | 92 | 983.6 |
| 20260506151929 | 15 | 168 | 4.8 | 11.3 | 0.20 | 0.36 | 0.36 | 92 | 983.7 |
| 20260506151429 | 15 | 256 | 3.2 | 16.1 | 0.20 | 0.33 | 0.33 | 92 | 983.8 |
| 20260506151206 | 15 | 202 | 3.2 | 16.1 | 0.23 | 0.33 | 0.33 | 92 | 983.8 |
| 20260506150428 | 15 | 324 | 4.8 | 16.1 | 0.23 | 0.33 | 0.30 | 92 | 983.9 |
| 20260506145928 | 15 | 213 | 3.2 | 9.7 | 0.20 | 0.28 | 0.28 | 91 | 983.9 |
| 20260506145433 | 15 | 207 | 4.8 | 16.1 | 0.18 | 0.23 | 0.23 | 91 | 983.7 |
| 20260506144929 | 15 | 278 | 6.4 | 16.1 | 0.15 | 0.20 | 0.20 | 90 | 983.6 |
| 20260506144429 | 15 | 171 | 6.4 | 14.5 | 0.15 | 0.18 | 0.18 | 91 | 983.6 |
| 20260506143928 | 15 | 195 | 6.4 | 14.5 | 0.15 | 0.18 | 0.18 | 90 | 983.5 |
| 20260506143429 | 15 | 205 | 6.4 | 14.5 | 0.15 | 0.18 | 0.15 | 90 | 983.7 |
| 20260506142929 | 15 | 189 | 6.4 | 12.9 | 0.13 | 0.15 | 0.15 | 90 | 983.6 |
| 20260506142428 | 15 | 166 | 4.8 | 16.1 | 0.13 | 0.15 | 0.15 | 90 | 983.7 |
| 20260506141929 | 15 | 231 | 4.8 | 16.1 | 0.13 | 0.15 | 0.15 | 89 | 983.6 |
| 20260506141429 | 15 | 187 | 4.8 | 12.9 | 0.10 | 0.13 | 0.13 | 89 | 983.6 |
| 20260506140929 | 15 | 145 | 4.8 | 12.9 | 0.10 | 0.13 | 0.13 | 88 | 983.7 |
| 20260506140429 | 16 | 267 | 4.8 | 12.9 | 0.08 | 0.10 | 0.10 | 87 | 983.6 |
| 20260506135929 | 16 | 196 | 4.8 | 12.9 | 0.05 | 0.08 | 0.08 | 86 | 983.6 |
| 20260506135429 | 16 | 186 | 4.8 | 12.9 | 0.05 | 0.05 | 0.05 | 86 | 983.7 |
| 20260506135204 | 16 | 209 | 3.2 | 8.0 | 0.05 | 0.05 | 0.05 | 85 | 983.7 |
| 20260506134429 | 16 | 176 | 3.2 | 9.7 | 0.03 | 0.05 | 0.05 | 84 | 983.6 |
| 20260506134212 | 16 | 218 | 3.2 | 9.7 | 0.03 | 0.05 | 0.05 | 84 | 983.6 |
| 20260506133428 | 16 | 189 | 3.2 | 8.0 | 0.03 | 0.03 | 0.03 | 83 | 983.6 |
| 20260506132929 | 16 | 332 | 4.8 | 14.5 | 0.03 | 0.03 | 0.03 | 83 | 983.5 |
| 20260506132713 | 16 | 288 | 4.8 | 14.5 | 0.03 | 0.03 | 0.03 | 82 | 983.5 |
| 20260506131929 | 16 | 308 | 4.8 | 14.5 | 0.03 | 0.03 | 0.03 | 83 | 983.6 |
| 20260506131428 | 16 | 283 | 3.2 | 11.3 | 0.03 | 0.03 | 0.03 | 83 | 983.8 |
| 20260506130930 | 16 | 280 | 4.8 | 12.9 | 0.03 | 0.03 | 0.03 | 83 | 983.7 |
| 20260506130715 | 16 | 288 | 6.4 | 12.9 | 0.03 | 0.03 | 0.03 | 81 | 983.7 |
| 20260506125930 | 16 | 207 | 6.4 | 11.3 | 0.03 | 0.03 | 0.03 | 81 | 983.7 |
| 20260506125428 | 16 | 295 | 4.8 | 11.3 | 0.03 | 0.03 | 0.00 | 80 | 983.8 |
| 20260506124930 | 16 | 210 | 4.8 | 11.3 | 0.00 | 0.00 | 0.00 | 81 | 983.8 |
| 20260506124429 | 16 | 156 | 4.8 | 11.3 | 0.00 | 0.00 | 0.00 | 80 | 983.9 |
| 20260506123930 | 17 | 191 | 4.8 | 11.3 | 0.00 | 0.00 | 0.00 | 80 | 984.0 |
| 20260506123429 | 17 | 253 | 4.8 | 11.3 | 0.00 | 0.00 | 0.00 | 79 | 984.0 |
| 20260506122930 | 17 | 189 | 4.8 | 11.3 | 0.00 | 0.00 | 0.00 | 79 | 984.1 |
| 20260506122429 | 17 | 218 | 4.8 | 11.3 | 0.00 | 0.00 | 0.00 | 79 | 983.9 |
| 20260506121930 | 17 | 210 | 4.8 | 11.3 | 0.00 | 0.00 | 0.00 | 78 | 983.7 |
| 20260506121429 | 17 | 205 | 6.4 | 11.3 | 0.00 | 0.00 | 0.00 | 79 | 983.8 |
| 20260506120929 | 17 | 307 | 6.4 | 14.5 | 0.00 | 0.00 | 0.00 | 78 | 983.9 |
| 20260506120428 | 17 | 182 | 4.8 | 14.5 | 0.00 | 0.00 | 0.00 | 78 | 983.8 |
| 20260506120219 | 17 | 279 | 4.8 | 11.3 | 0.00 | 0.00 | 0.00 | 78 | 983.6 |
| 20260506115720 | 17 | 209 | 6.4 | 11.3 | 0.00 | 0.00 | 0.00 | 78 | 983.6 |
| 20260506114928 | 17 | 4 | 6.4 | 11.3 | 0.00 | 0.00 | 0.00 | 77 | 983.5 |
| 20260506114429 | 17 | 298 | 4.8 | 14.5 | 0.00 | 0.00 | 0.00 | 78 | 983.6 |
| 20260506113928 | 17 | 193 | 6.4 | 14.5 | 0.00 | 0.00 | 0.00 | 78 | 983.5 |
| 20260506113429 | 17 | 156 | 6.4 | 14.5 | 0.00 | 0.00 | 0.00 | 78 | 983.5 |
| 20260506112929 | 17 | 203 | 6.4 | 14.5 | 0.00 | 0.00 | 0.00 | 78 | 983.5 |
| 20260506112719 | 17 | 226 | 4.8 | 9.7 | 0.00 | 0.00 | 0.00 | 78 | 983.4 |
| 20260506111929 | 17 | 58 | 4.8 | 8.0 | 0.00 | 0.00 | 0.00 | 78 | 983.5 |
| 20260506111417 | 17 | 171 | 4.8 | 11.3 | 0.00 | 0.00 | 0.00 | 78 | 983.5 |
| 20260506110918 | 17 | 316 | 4.8 | 11.3 | 0.00 | 0.00 | 0.00 | 78 | 983.5 |
| 20260506110417 | 17 | 175 | 4.8 | 9.7 | 0.00 | 0.00 | 0.00 | 78 | 983.4 |
| 20260506105916 | 17 | 246 | 3.2 | 11.3 | 0.00 | 0.00 | 0.00 | 78 | 983.4 |
| 20260506105406 | 17 | 182 | 4.8 | 14.5 | 0.00 | 0.00 | 0.00 | 78 | 983.4 |
| 20260506104907 | 17 | 293 | 6.4 | 14.5 | 0.00 | 0.00 | 0.00 | 78 | 983.5 |
| 20260506104655 | 17 | 288 | 4.8 | 11.3 | 0.00 | 0.00 | 0.00 | 78 | 983.3 |
| 20260506103907 | 17 | 257 | 6.4 | 14.5 | 0.00 | 0.00 | 0.00 | 78 | 983.3 |
| 20260506103407 | 17 | 206 | 6.4 | 14.5 | 0.00 | 0.00 | 0.00 | 78 | 983.2 |
| 20260506102903 | 17 | 147 | 6.4 | 14.5 | 0.00 | 0.00 | 0.00 | 78 | 983.3 |
| 20260506102443 | 17 | 183 | 6.4 | 11.3 | 0.00 | 0.00 | 0.00 | 78 | 983.2 |
| 20260506102431 | 17 | 222 | 6.4 | 14.5 | 0.00 | 0.00 | 0.00 | 78 | 983.2 |
| 20260506101651 | 17 | 260 | 4.8 | 11.3 | 0.00 | 0.00 | 0.00 | 78 | 983.2 |
| 20260506100902 | 17 | 259 | 4.8 | 9.7 | 0.00 | 0.00 | 0.00 | 78 | 983.2 |
| 20260506100402 | 17 | 195 | 4.8 | 12.9 | 0.00 | 0.00 | 0.00 | 78 | 983.2 |
| 20260506095902 | 17 | 174 | 4.8 | 12.9 | 0.00 | 0.00 | 0.00 | 78 | 983.2 |
| 20260506095401 | 17 | 163 | 4.8 | 11.3 | 0.00 | 0.00 | 0.00 | 77 | 983.1 |
| 20260506094903 | 17 | 219 | 6.4 | 11.3 | 0.00 | 0.00 | 0.00 | 77 | 983.2 |
| 20260506094402 | 17 | 193 | 6.4 | 9.7 | 0.00 | 0.00 | 0.00 | 77 | 983.2 |
| 20260506094150 | 17 | 166 | 6.4 | 9.7 | 0.00 | 0.00 | 0.00 | 76 | 983.2 |
| 20260506093402 | 17 | 197 | 4.8 | 9.7 | 0.00 | 0.00 | 0.00 | 76 | 983.2 |
| 20260506092902 | 17 | 160 | 3.2 | 9.7 | 0.00 | 0.00 | 0.00 | 76 | 983.1 |
| 20260506092401 | 17 | 174 | 4.8 | 11.3 | 0.00 | 0.00 | 0.00 | 75 | 983.2 |
| 20260506092143 | 17 | 210 | 6.4 | 12.9 | 0.00 | 0.00 | 0.00 | 75 | 983.3 |
| 20260506091401 | 17 | 286 | 6.4 | 12.9 | 0.00 | 0.00 | 0.00 | 74 | 983.2 |
| 20260506090905 | 17 | 176 | 4.8 | 11.3 | 0.00 | 0.00 | 0.00 | 74 | 983.2 |
| 20260506090406 | 17 | 118 | 3.2 | 9.7 | 0.00 | 0.00 | 0.00 | 74 | 983.2 |
| 20260506085941 | 18 | 243 | 4.8 | 12.9 | 0.00 | 0.00 | 0.00 | 74 | 983.3 |
| 20260506085929 | 18 | 192 | 4.8 | 12.9 | 0.00 | 0.00 | 0.00 | 74 | 983.2 |
| 20260506084902 | 18 | 187 | 4.8 | 11.3 | 0.00 | 0.00 | 0.00 | 73 | 983.3 |
| 20260506084401 | 18 | 210 | 4.8 | 12.9 | 0.00 | 0.00 | 0.00 | 73 | 983.2 |
| 20260506084141 | 18 | 218 | 4.8 | 12.9 | 0.00 | 0.00 | 0.00 | 73 | 983.2 |
| 20260506083400 | 18 | 272 | 6.4 | 14.5 | 0.00 | 0.00 | 0.00 | 73 | 983.1 |
| 20260506083146 | 18 | 194 | 6.4 | 14.5 | 0.00 | 0.00 | 0.00 | 72 | 983.2 |
| 20260506082401 | 18 | 199 | 6.4 | 11.3 | 0.00 | 0.00 | 0.00 | 72 | 983.2 |
| 20260506081902 | 18 | 134 | 6.4 | 16.1 | 0.00 | 0.00 | 0.00 | 72 | 983.1 |
| 20260506081402 | 18 | 181 | 8.0 | 16.1 | 0.00 | 0.00 | 0.00 | 72 | 983.1 |
| 20260506080902 | 18 | 202 | 8.0 | 16.1 | 0.00 | 0.00 | 0.00 | 71 | 983.2 |
| 20260506080402 | 18 | 201 | 8.0 | 16.1 | 0.00 | 0.00 | 0.00 | 71 | 983.3 |
| 20260506073401 | 18 | 184 | 6.4 | 17.7 | 0.00 | 0.00 | 0.00 | 71 | 983.3 |
| 20260506072902 | 18 | 184 | 6.4 | 17.7 | 0.00 | 0.00 | 0.00 | 70 | 983.3 |
| 20260506072401 | 18 | 197 | 4.8 | 11.3 | 0.00 | 0.00 | 0.00 | 70 | 983.4 |
| 20260506071902 | 18 | 167 | 4.8 | 11.3 | 0.00 | 0.00 | 0.00 | 70 | 983.4 |
| 20260506071401 | 18 | 191 | 4.8 | 12.9 | 0.00 | 0.00 | 0.00 | 70 | 983.5 |
| 20260506070901 | 18 | 195 | 4.8 | 12.9 | 0.00 | 0.00 | 0.00 | 70 | 983.6 |
| 20260506070646 | 18 | 170 | 4.8 | 12.9 | 0.00 | 0.00 | 0.00 | 70 | 983.6 |
| 20260506070147 | 18 | 137 | 4.8 | 12.9 | 0.00 | 0.00 | 0.00 | 69 | 983.7 |
| 20260506062349 | 18 | 185 | 3.2 | 8.0 | 0.00 | 0.00 | 0.00 | 67 | 984.0 |
| 20260506061835 | 18 | 241 | 3.2 | 8.0 | 0.00 | 0.00 | 0.00 | 67 | 984.0 |
| 20260506061333 | 19 | 140 | 4.8 | 16.1 | 0.00 | 0.00 | 0.00 | 67 | 984.1 |
| 20260506060830 | 19 | 164 | 6.4 | 16.1 | 0.00 | 0.00 | 0.00 | 66 | 984.1 |
| 20260506060330 | 19 | 192 | 6.4 | 14.5 | 0.00 | 0.00 | 0.00 | 66 | 984.0 |
| 20260506060122 | 19 | 170 | 6.4 | 14.5 | 0.00 | 0.00 | 0.00 | 65 | 984.1 |
| 20260506051328 | 19 | 222 | 6.4 | 16.1 | 0.00 | 0.00 | 0.00 | 63 | 984.3 |
| 20260506051118 | 19 | 191 | 6.4 | 14.5 | 0.00 | 0.00 | 0.00 | 63 | 984.3 |
| 20260506050329 | 19 | 157 | 8.0 | 19.3 | 0.00 | 0.00 | 0.00 | 62 | 984.4 |
| 20260506050130 | 20 | 269 | 8.0 | 19.3 | 0.00 | 0.00 | 0.00 | 62 | 984.3 |
| 20260506044830 | 20 | 176 | 8.0 | 17.7 | 0.00 | 0.00 | 0.00 | 61 | 984.4 |
| 20260506044330 | 20 | 205 | 8.0 | 19.3 | 0.00 | 0.00 | 0.00 | 61 | 984.4 |
| 20260506043830 | 20 | 303 | 6.4 | 19.3 | 0.00 | 0.00 | 0.00 | 60 | 984.4 |
| 20260506043330 | 20 | 274 | 8.0 | 17.7 | 0.00 | 0.00 | 0.00 | 60 | 984.4 |
| 20260506042829 | 20 | 293 | 9.7 | 19.3 | 0.00 | 0.00 | 0.00 | 60 | 984.4 |
| 20260506042330 | 20 | 215 | 8.0 | 19.3 | 0.00 | 0.00 | 0.00 | 60 | 984.4 |
| 20260506041829 | 20 | 157 | 6.4 | 17.7 | 0.00 | 0.00 | 0.00 | 60 | 984.5 |
| 20260506041329 | 20 | 198 | 6.4 | 16.1 | 0.00 | 0.00 | 0.00 | 60 | 984.4 |
| 20260506040830 | 20 | 271 | 8.0 | 16.1 | 0.00 | 0.00 | 0.00 | 60 | 984.5 |
| 20260506040330 | 20 | 156 | 8.0 | 17.7 | 0.00 | 0.00 | 0.00 | 59 | 984.5 |
| 20260506040119 | 20 | 166 | 6.4 | 17.7 | 0.00 | 0.00 | 0.00 | 59 | 984.4 |
| 20260506035620 | 20 | 217 | 8.0 | 17.7 | 0.00 | 0.00 | 0.00 | 60 | 984.4 |
| 20260506034830 | 20 | 263 | 8.0 | 17.7 | 0.00 | 0.00 | 0.00 | 59 | 984.4 |
| 20260506034326 | 20 | 259 | 8.0 | 19.3 | 0.00 | 0.00 | 0.00 | 59 | 984.4 |
| 20260506033826 | 20 | 177 | 9.7 | 19.3 | 0.00 | 0.00 | 0.00 | 59 | 984.3 |
| 20260506033327 | 20 | 186 | 8.0 | 17.7 | 0.00 | 0.00 | 0.00 | 59 | 984.2 |
| 20260506032828 | 20 | 159 | 6.4 | 20.9 | 0.00 | 0.00 | 0.00 | 60 | 984.4 |
| 20260506032328 | 20 | 274 | 6.4 | 20.9 | 0.00 | 0.00 | 0.00 | 59 | 984.4 |
| 20260506032119 | 20 | 254 | 6.4 | 14.5 | 0.00 | 0.00 | 0.00 | 59 | 984.3 |
| 20260506031328 | 20 | 302 | 6.4 | 16.1 | 0.00 | 0.00 | 0.00 | 59 | 984.4 |
| 20260506030828 | 20 | 144 | 8.0 | 16.1 | 0.00 | 0.00 | 0.00 | 58 | 984.3 |
| 20260506030619 | 20 | 298 | 6.4 | 14.5 | 0.00 | 0.00 | 0.00 | 58 | 984.4 |
| 20260506025829 | 20 | 223 | 6.4 | 14.5 | 0.00 | 0.00 | 0.00 | 58 | 984.4 |
| 20260506025412 | 20 | 199 | 8.0 | 17.7 | 0.00 | 0.00 | 0.00 | 57 | 984.3 |
| 20260506025352 | 20 | 215 | 8.0 | 14.5 | 0.00 | 0.00 | 0.00 | 57 | 984.3 |
| 20260506024617 | 20 | 168 | 6.4 | 17.7 | 0.00 | 0.00 | 0.00 | 56 | 984.3 |
| 20260506023825 | 20 | 244 | 6.4 | 17.7 | 0.00 | 0.00 | 0.00 | 56 | 984.3 |
| 20260506023616 | 20 | 219 | 6.4 | 17.7 | 0.00 | 0.00 | 0.00 | 56 | 984.4 |
| 20260506022825 | 20 | 301 | 6.4 | 14.5 | 0.00 | 0.00 | 0.00 | 55 | 984.4 |
| 20260506022325 | 20 | 154 | 6.4 | 17.7 | 0.00 | 0.00 | 0.00 | 55 | 984.3 |
| 20260506021825 | 21 | 249 | 8.0 | 17.7 | 0.00 | 0.00 | 0.00 | 55 | 984.4 |
| 20260506021325 | 21 | 199 | 6.4 | 14.5 | 0.00 | 0.00 | 0.00 | 55 | 984.4 |
| 20260506021114 | 21 | 174 | 6.4 | 12.9 | 0.00 | 0.00 | 0.00 | 55 | 984.4 |
| 20260506020326 | 21 | 303 | 6.4 | 14.5 | 0.00 | 0.00 | 0.00 | 55 | 984.4 |
| 20260506015825 | 21 | 188 | 6.4 | 14.5 | 0.00 | 0.00 | 0.00 | 54 | 984.4 |
| 20260506015615 | 21 | 205 | 6.4 | 16.1 | 0.00 | 0.00 | 0.00 | 55 | 984.4 |
| 20260506014820 | 21 | 239 | 4.8 | 16.1 | 0.00 | 0.00 | 0.00 | 54 | 984.2 |
| 20260506014323 | 21 | 178 | 4.8 | 14.5 | 0.00 | 0.00 | 0.00 | 54 | 984.2 |
| 20260506013821 | 21 | 199 | 6.4 | 14.5 | 0.00 | 0.00 | 0.00 | 53 | 984.2 |
| 20260506013320 | 21 | 220 | 6.4 | 14.5 | 0.00 | 0.00 | 0.00 | 52 | 984.2 |
| 20260506012820 | 21 | 181 | 6.4 | 12.9 | 0.00 | 0.00 | 0.00 | 52 | 984.1 |
| 20260506012606 | 21 | 231 | 6.4 | 14.5 | 0.00 | 0.00 | 0.00 | 52 | 984.1 |
| 20260506011820 | 21 | 207 | 4.8 | 14.5 | 0.00 | 0.00 | 0.00 | 52 | 984.0 |
| 20260506011320 | 21 | 207 | 6.4 | 12.9 | 0.00 | 0.00 | 0.00 | 51 | 983.9 |
| 20260506010820 | 21 | 210 | 6.4 | 12.9 | 0.00 | 0.00 | 0.00 | 50 | 983.9 |
| 20260506010320 | 21 | 161 | 6.4 | 19.3 | 0.00 | 0.00 | 0.00 | 51 | 983.8 |
| 20260506005821 | 22 | 162 | 8.0 | 19.3 | 0.00 | 0.00 | 0.00 | 49 | 983.8 |
| 20260506005318 | 22 | 219 | 6.4 | 19.3 | 0.00 | 0.00 | 0.00 | 49 | 983.7 |
| 20260506004815 | 22 | 216 | 6.4 | 16.1 | 0.00 | 0.00 | 0.00 | 49 | 983.6 |
| 20260506004603 | 22 | 196 | 8.0 | 17.7 | 0.00 | 0.00 | 0.00 | 48 | 983.6 |
| 20260506004141 | 22 | 220 | 8.0 | 16.1 | 0.00 | 0.00 | 0.00 | 47 | 983.6 |
| 20260506003843 | 22 | 222 | 9.7 | 17.7 | 0.00 | 0.00 | 0.00 | 48 | 983.6 |
| 20260506002816 | 22 | 221 | 6.4 | 14.5 | 0.00 | 0.00 | 0.00 | 48 | 983.6 |
| 20260506002316 | 22 | 219 | 6.4 | 12.9 | 0.00 | 0.00 | 0.00 | 47 | 983.6 |
| 20260506001816 | 22 | 226 | 4.8 | 9.7 | 0.00 | 0.00 | 0.00 | 48 | 983.6 |
| 20260506001355 | 22 | 223 | 6.4 | 17.7 | 0.00 | 0.00 | 0.00 | 46 | 983.4 |
| 20260506001341 | 22 | 223 | 6.4 | 17.7 | 0.00 | 0.00 | 0.00 | 46 | 983.5 |
| 20260506000316 | 23 | 224 | 6.4 | 16.1 | 0.00 | 0.00 | 0.00 | 45 | 983.4 |
| 20260505235812 | 23 | 222 | 6.4 | 12.9 | 0.00 | 0.00 | 0.00 | 45 | 983.3 |
| 20260505235312 | 23 | 220 | 4.8 | 12.9 | 0.00 | 0.00 | 0.00 | 44 | 983.2 |
| 20260505234813 | 23 | 220 | 6.4 | 12.9 | 0.00 | 0.00 | 0.00 | 44 | 983.3 |
| 20260505234312 | 23 | 222 | 6.4 | 14.5 | 0.00 | 0.00 | 0.00 | 44 | 983.2 |
| 20260505233851 | 23 | 213 | 9.7 | 17.7 | 0.00 | 0.00 | 0.00 | 44 | 983.1 |
| 20260505233838 | 23 | 224 | 8.0 | 14.5 | 0.00 | 0.00 | 0.00 | 44 | 983.2 |
| 20260505232813 | 23 | 219 | 8.0 | 17.7 | 0.00 | 0.00 | 0.00 | 45 | 983.1 |
| 20260505232313 | 23 | 221 | 8.0 | 22.5 | 0.00 | 0.00 | 0.00 | 44 | 983.1 |
| 20260505231813 | 23 | 224 | 8.0 | 22.5 | 0.00 | 0.00 | 0.00 | 44 | 983.0 |
| 20260505231313 | 23 | 223 | 8.0 | 17.7 | 0.00 | 0.00 | 0.00 | 44 | 983.2 |
| 20260505230813 | 23 | 217 | 9.7 | 17.7 | 0.00 | 0.00 | 0.00 | 43 | 983.2 |
| 20260505230313 | 23 | 217 | 9.7 | 17.7 | 0.00 | 0.00 | 0.00 | 43 | 983.2 |
| 20260505225811 | 23 | 222 | 9.7 | 17.7 | 0.00 | 0.00 | 0.00 | 44 | 983.2 |
| 20260505225556 | 24 | 219 | 9.7 | 22.5 | 0.00 | 0.00 | 0.00 | 45 | 983.1 |
| 20260505224811 | 24 | 212 | 11.3 | 22.5 | 0.00 | 0.00 | 0.00 | 43 | 983.2 |
| 20260505224311 | 24 | 223 | 9.7 | 19.3 | 0.00 | 0.00 | 0.00 | 43 | 983.1 |
| 20260505224055 | 24 | 218 | 11.3 | 19.3 | 0.00 | 0.00 | 0.00 | 44 | 983.0 |
| 20260505223552 | 24 | 218 | 12.9 | 20.9 | 0.00 | 0.00 | 0.00 | 43 | 983.0 |
| 20260505222808 | 25 | 217 | 11.3 | 27.4 | 0.00 | 0.00 | 0.00 | 43 | 983.1 |
| 20260505222308 | 25 | 221 | 9.7 | 27.4 | 0.00 | 0.00 | 0.00 | 43 | 983.1 |
| 20260505221809 | 25 | 190 | 9.7 | 17.7 | 0.00 | 0.00 | 0.00 | 42 | 983.1 |
| 20260505221555 | 25 | 184 | 8.0 | 16.1 | 0.00 | 0.00 | 0.00 | 42 | 983.1 |
| 20260505220808 | 25 | 230 | 9.7 | 17.7 | 0.00 | 0.00 | 0.00 | 41 | 983.1 |
| 20260505220556 | 25 | 67 | 11.3 | 19.3 | 0.00 | 0.00 | 0.00 | 41 | 983.0 |
| 20260505215808 | 25 | 209 | 11.3 | 20.9 | 0.00 | 0.00 | 0.00 | 41 | 983.0 |
| 20260505215310 | 25 | 211 | 12.9 | 33.8 | 0.00 | 0.00 | 0.00 | 40 | 983.0 |
| 20260505214809 | 25 | 198 | 12.9 | 33.8 | 0.00 | 0.00 | 0.00 | 40 | 982.9 |
| 20260505214309 | 25 | 221 | 12.9 | 22.5 | 0.00 | 0.00 | 0.00 | 39 | 982.9 |
| 20260505214054 | 25 | 211 | 11.3 | 27.4 | 0.00 | 0.00 | 0.00 | 38 | 982.9 |
| 20260505213310 | 26 | 242 | 11.3 | 27.4 | 0.00 | 0.00 | 0.00 | 38 | 982.7 |
| 20260505212810 | 26 | 221 | 9.7 | 35.4 | 0.00 | 0.00 | 0.00 | 38 | 982.7 |
| 20260505212310 | 26 | 228 | 8.0 | 35.4 | 0.00 | 0.00 | 0.00 | 41 | 982.7 |